sensor_id;sensor_type;location;lat;lon;timestamp;temperature;humidity
10263;DHT22;5177;50.068;8.156;2024-02-23T00:02:25;9.00;1.00
10263;DHT22;5177;50.068;8.156;2024-02-23T00:04:50;9.00;1.00
10263;DHT22;5177;50.068;8.156;2024-02-23T00:07:16;8.90;99.90
10263;DHT22;5177;50.068;8.156;2024-02-23T00:09:41;8.90;99.90
10263;DHT22;5177;50.068;8.156;2024-02-23T00:12:07;8.90;99.90
10263;DHT22;5177;50.068;8.156;2024-02-23T00:14:33;8.90;99.90
10263;DHT22;5177;50.068;8.156;2024-02-23T00:17:02;8.80;99.90
10263;DHT22;5177;50.068;8.156;2024-02-23T00:19:27;8.80;99.90
10263;DHT22;5177;50.068;8.156;2024-02-23T00:21:53;8.80;99.90
10263;DHT22;5177;50.068;8.156;2024-02-23T00:24:18;8.70;99.90
10263;DHT22;5177;50.068;8.156;2024-02-23T00:26:48;8.70;99.90
10263;DHT22;5177;50.068;8.156;2024-02-23T00:29:16;8.70;99.90
10263;DHT22;5177;50.068;8.156;2024-02-23T00:31:41;8.70;99.90
10263;DHT22;5177;50.068;8.156;2024-02-23T00:34:07;8.70;99.90
10263;DHT22;5177;50.068;8.156;2024-02-23T00:36:37;8.70;99.90
10263;DHT22;5177;50.068;8.156;2024-02-23T00:39:03;8.70;99.90
10263;DHT22;5177;50.068;8.156;2024-02-23T00:41:28;8.70;99.90
10263;DHT22;5177;50.068;8.156;2024-02-23T00:43:54;8.60;99.90
10263;DHT22;5177;50.068;8.156;2024-02-23T00:46:19;8.50;99.90
10263;DHT22;5177;50.068;8.156;2024-02-23T00:48:45;8.50;99.90
10263;DHT22;5177;50.068;8.156;2024-02-23T00:51:10;8.50;99.90
10263;DHT22;5177;50.068;8.156;2024-02-23T00:53:36;8.50;99.90
10263;DHT22;5177;50.068;8.156;2024-02-23T00:56:01;8.50;99.90
10263;DHT22;5177;50.068;8.156;2024-02-23T00:58:27;8.40;99.90
10263;DHT22;5177;50.068;8.156;2024-02-23T01:00:52;8.50;99.90
10263;DHT22;5177;50.068;8.156;2024-02-23T01:03:18;8.50;99.90
10263;DHT22;5177;50.068;8.156;2024-02-23T01:05:43;8.40;99.90
10263;DHT22;5177;50.068;8.156;2024-02-23T01:08:09;8.50;99.90
10263;DHT22;5177;50.068;8.156;2024-02-23T01:10:34;8.50;99.90
10263;DHT22;5177;50.068;8.156;2024-02-23T01:13:00;8.40;99.90
10263;DHT22;5177;50.068;8.156;2024-02-23T01:15:25;8.40;99.90
10263;DHT22;5177;50.068;8.156;2024-02-23T01:17:51;8.30;99.90
10263;DHT22;5177;50.068;8.156;2024-02-23T01:20:16;8.20;99.90
10263;DHT22;5177;50.068;8.156;2024-02-23T01:22:42;8.20;99.90
10263;DHT22;5177;50.068;8.156;2024-02-23T01:25:08;8.20;99.90
10263;DHT22;5177;50.068;8.156;2024-02-23T01:27:33;8.20;99.90
10263;DHT22;5177;50.068;8.156;2024-02-23T01:29:59;8.20;99.90
10263;DHT22;5177;50.068;8.156;2024-02-23T01:32:24;8.20;99.90
10263;DHT22;5177;50.068;8.156;2024-02-23T01:34:50;8.30;99.90
10263;DHT22;5177;50.068;8.156;2024-02-23T01:37:15;8.30;99.90
10263;DHT22;5177;50.068;8.156;2024-02-23T01:39:41;8.30;1.00
10263;DHT22;5177;50.068;8.156;2024-02-23T01:42:07;8.30;1.00
10263;DHT22;5177;50.068;8.156;2024-02-23T01:44:33;8.20;1.00
10263;DHT22;5177;50.068;8.156;2024-02-23T01:46:59;8.10;1.00
10263;DHT22;5177;50.068;8.156;2024-02-23T01:49:24;8.10;1.00
10263;DHT22;5177;50.068;8.156;2024-02-23T01:51:57;8.00;1.00
10263;DHT22;5177;50.068;8.156;2024-02-23T01:54:24;7.80;1.00
10263;DHT22;5177;50.068;8.156;2024-02-23T01:56:50;7.80;1.00
10263;DHT22;5177;50.068;8.156;2024-02-23T01:59:15;7.70;1.00
10263;DHT22;5177;50.068;8.156;2024-02-23T02:01:45;7.60;99.90
10263;DHT22;5177;50.068;8.156;2024-02-23T02:04:10;7.60;99.90
10263;DHT22;5177;50.068;8.156;2024-02-23T02:06:36;7.50;1.00
10263;DHT22;5177;50.068;8.156;2024-02-23T02:09:02;7.40;99.90
10263;DHT22;5177;50.068;8.156;2024-02-23T02:11:27;7.30;1.00
10263;DHT22;5177;50.068;8.156;2024-02-23T02:13:53;7.30;1.00
10263;DHT22;5177;50.068;8.156;2024-02-23T02:16:18;7.30;1.00
10263;DHT22;5177;50.068;8.156;2024-02-23T02:18:44;7.30;99.90
10263;DHT22;5177;50.068;8.156;2024-02-23T02:21:11;7.30;1.00
10263;DHT22;5177;50.068;8.156;2024-02-23T02:23:37;7.30;1.00
10263;DHT22;5177;50.068;8.156;2024-02-23T02:26:02;7.20;99.90
10263;DHT22;5177;50.068;8.156;2024-02-23T02:28:28;7.20;99.90
10263;DHT22;5177;50.068;8.156;2024-02-23T02:30:53;7.20;99.90
10263;DHT22;5177;50.068;8.156;2024-02-23T02:33:19;7.10;99.90
10263;DHT22;5177;50.068;8.156;2024-02-23T02:35:45;7.10;99.90
10263;DHT22;5177;50.068;8.156;2024-02-23T02:38:11;7.10;99.90
10263;DHT22;5177;50.068;8.156;2024-02-23T02:40:36;7.00;99.90
10263;DHT22;5177;50.068;8.156;2024-02-23T02:43:02;7.00;99.90
10263;DHT22;5177;50.068;8.156;2024-02-23T02:45:27;7.00;99.90
10263;DHT22;5177;50.068;8.156;2024-02-23T02:47:53;6.90;99.90
10263;DHT22;5177;50.068;8.156;2024-02-23T02:50:18;6.90;99.90
10263;DHT22;5177;50.068;8.156;2024-02-23T02:52:44;6.80;99.90
10263;DHT22;5177;50.068;8.156;2024-02-23T02:55:10;6.80;99.90
10263;DHT22;5177;50.068;8.156;2024-02-23T02:57:35;6.80;99.90
10263;DHT22;5177;50.068;8.156;2024-02-23T03:00:04;6.70;99.90
10263;DHT22;5177;50.068;8.156;2024-02-23T03:02:30;6.70;99.90
10263;DHT22;5177;50.068;8.156;2024-02-23T03:04:56;6.70;99.90
10263;DHT22;5177;50.068;8.156;2024-02-23T03:07:21;6.70;99.90
10263;DHT22;5177;50.068;8.156;2024-02-23T03:09:47;6.70;99.90
10263;DHT22;5177;50.068;8.156;2024-02-23T03:12:14;6.70;99.90
10263;DHT22;5177;50.068;8.156;2024-02-23T03:14:39;6.70;99.90
10263;DHT22;5177;50.068;8.156;2024-02-23T03:17:17;6.70;99.90
10263;DHT22;5177;50.068;8.156;2024-02-23T03:19:43;6.60;1.00
10263;DHT22;5177;50.068;8.156;2024-02-23T03:22:08;6.50;1.00
10263;DHT22;5177;50.068;8.156;2024-02-23T03:24:34;6.50;1.00
10263;DHT22;5177;50.068;8.156;2024-02-23T03:26:59;6.40;1.00
10263;DHT22;5177;50.068;8.156;2024-02-23T03:29:25;6.40;15.10
10263;DHT22;5177;50.068;8.156;2024-02-23T03:31:54;6.40;97.50
10263;DHT22;5177;50.068;8.156;2024-02-23T03:34:20;6.40;99.90
10263;DHT22;5177;50.068;8.156;2024-02-23T03:36:45;6.30;99.90
10263;DHT22;5177;50.068;8.156;2024-02-23T03:39:11;6.30;99.90
10263;DHT22;5177;50.068;8.156;2024-02-23T03:41:37;6.30;99.90
10263;DHT22;5177;50.068;8.156;2024-02-23T03:44:02;6.20;99.90
10263;DHT22;5177;50.068;8.156;2024-02-23T03:46:28;6.20;99.90
10263;DHT22;5177;50.068;8.156;2024-02-23T03:48:53;6.20;99.90
10263;DHT22;5177;50.068;8.156;2024-02-23T03:51:19;6.20;99.90
10263;DHT22;5177;50.068;8.156;2024-02-23T03:53:44;6.20;99.90
10263;DHT22;5177;50.068;8.156;2024-02-23T03:56:10;6.20;94.90
10263;DHT22;5177;50.068;8.156;2024-02-23T03:58:36;6.10;99.90
10263;DHT22;5177;50.068;8.156;2024-02-23T04:01:01;6.10;99.90
10263;DHT22;5177;50.068;8.156;2024-02-23T04:03:27;6.10;99.90
10263;DHT22;5177;50.068;8.156;2024-02-23T04:05:52;6.00;99.90
10263;DHT22;5177;50.068;8.156;2024-02-23T04:08:18;6.00;99.90
10263;DHT22;5177;50.068;8.156;2024-02-23T04:10:43;6.00;99.90
10263;DHT22;5177;50.068;8.156;2024-02-23T04:13:09;6.00;99.90
10263;DHT22;5177;50.068;8.156;2024-02-23T04:15:35;6.00;99.90
10263;DHT22;5177;50.068;8.156;2024-02-23T04:18:01;6.00;99.90
10263;DHT22;5177;50.068;8.156;2024-02-23T04:20:26;5.90;99.90
10263;DHT22;5177;50.068;8.156;2024-02-23T04:22:52;5.80;99.90
10263;DHT22;5177;50.068;8.156;2024-02-23T04:25:17;5.90;99.90
10263;DHT22;5177;50.068;8.156;2024-02-23T04:27:43;5.90;99.90
10263;DHT22;5177;50.068;8.156;2024-02-23T04:30:09;5.80;99.90
10263;DHT22;5177;50.068;8.156;2024-02-23T04:32:35;5.90;99.90
10263;DHT22;5177;50.068;8.156;2024-02-23T04:35:01;5.90;99.90
10263;DHT22;5177;50.068;8.156;2024-02-23T04:37:27;5.90;99.90
10263;DHT22;5177;50.068;8.156;2024-02-23T04:39:52;5.90;99.90
10263;DHT22;5177;50.068;8.156;2024-02-23T04:42:18;5.90;99.90
10263;DHT22;5177;50.068;8.156;2024-02-23T04:44:43;5.90;99.90
10263;DHT22;5177;50.068;8.156;2024-02-23T04:47:09;5.90;99.90
10263;DHT22;5177;50.068;8.156;2024-02-23T04:49:34;5.90;99.90
10263;DHT22;5177;50.068;8.156;2024-02-23T04:52:00;5.90;99.90
10263;DHT22;5177;50.068;8.156;2024-02-23T04:54:25;5.90;99.90
10263;DHT22;5177;50.068;8.156;2024-02-23T04:56:51;5.90;99.90
10263;DHT22;5177;50.068;8.156;2024-02-23T04:59:16;5.90;82.60
10263;DHT22;5177;50.068;8.156;2024-02-23T05:01:42;5.80;95.30
10263;DHT22;5177;50.068;8.156;2024-02-23T05:04:08;5.80;99.90
10263;DHT22;5177;50.068;8.156;2024-02-23T05:06:33;5.90;99.90
10263;DHT22;5177;50.068;8.156;2024-02-23T05:08:59;5.90;82.70
10263;DHT22;5177;50.068;8.156;2024-02-23T05:11:24;5.80;99.90
10263;DHT22;5177;50.068;8.156;2024-02-23T05:13:50;5.80;99.90
10263;DHT22;5177;50.068;8.156;2024-02-23T05:16:15;5.70;99.90
10263;DHT22;5177;50.068;8.156;2024-02-23T05:18:41;5.70;99.90
10263;DHT22;5177;50.068;8.156;2024-02-23T05:21:07;5.70;99.90
10263;DHT22;5177;50.068;8.156;2024-02-23T05:23:32;5.70;99.90
10263;DHT22;5177;50.068;8.156;2024-02-23T05:25:58;5.70;99.90
10263;DHT22;5177;50.068;8.156;2024-02-23T05:28:23;5.70;99.90
10263;DHT22;5177;50.068;8.156;2024-02-23T05:30:49;5.70;99.90
10263;DHT22;5177;50.068;8.156;2024-02-23T05:33:14;5.70;99.90
10263;DHT22;5177;50.068;8.156;2024-02-23T05:35:40;5.70;99.90
10263;DHT22;5177;50.068;8.156;2024-02-23T05:38:05;5.80;99.90
10263;DHT22;5177;50.068;8.156;2024-02-23T05:40:31;5.70;99.90
10263;DHT22;5177;50.068;8.156;2024-02-23T05:42:58;5.70;99.90
10263;DHT22;5177;50.068;8.156;2024-02-23T05:45:23;5.70;99.90
10263;DHT22;5177;50.068;8.156;2024-02-23T05:47:49;5.70;99.90
10263;DHT22;5177;50.068;8.156;2024-02-23T05:50:14;5.70;99.90
10263;DHT22;5177;50.068;8.156;2024-02-23T05:52:40;5.70;99.90
10263;DHT22;5177;50.068;8.156;2024-02-23T05:55:05;5.70;99.90
10263;DHT22;5177;50.068;8.156;2024-02-23T05:57:33;5.70;99.90
10263;DHT22;5177;50.068;8.156;2024-02-23T05:59:58;5.80;99.90
10263;DHT22;5177;50.068;8.156;2024-02-23T06:02:24;5.80;99.90
10263;DHT22;5177;50.068;8.156;2024-02-23T06:04:50;5.80;99.90
10263;DHT22;5177;50.068;8.156;2024-02-23T06:07:15;5.80;99.90
10263;DHT22;5177;50.068;8.156;2024-02-23T06:09:41;5.80;99.90
10263;DHT22;5177;50.068;8.156;2024-02-23T06:12:07;5.80;99.90
10263;DHT22;5177;50.068;8.156;2024-02-23T06:14:32;5.80;99.90
10263;DHT22;5177;50.068;8.156;2024-02-23T06:16:58;5.90;99.90
10263;DHT22;5177;50.068;8.156;2024-02-23T06:19:23;5.80;99.90
10263;DHT22;5177;50.068;8.156;2024-02-23T06:21:49;5.80;99.90
10263;DHT22;5177;50.068;8.156;2024-02-23T06:24:15;5.90;99.90
10263;DHT22;5177;50.068;8.156;2024-02-23T06:26:41;5.90;99.90
10263;DHT22;5177;50.068;8.156;2024-02-23T06:29:07;5.90;99.90
10263;DHT22;5177;50.068;8.156;2024-02-23T06:31:39;5.90;9.30
10263;DHT22;5177;50.068;8.156;2024-02-23T06:34:05;6.00;1.00
10263;DHT22;5177;50.068;8.156;2024-02-23T06:36:31;6.00;1.00
10263;DHT22;5177;50.068;8.156;2024-02-23T06:38:56;6.00;1.00
10263;DHT22;5177;50.068;8.156;2024-02-23T06:41:38;6.10;1.00
10263;DHT22;5177;50.068;8.156;2024-02-23T06:44:04;6.10;1.00
10263;DHT22;5177;50.068;8.156;2024-02-23T06:46:29;6.10;1.00
10263;DHT22;5177;50.068;8.156;2024-02-23T06:48:55;6.20;1.00
10263;DHT22;5177;50.068;8.156;2024-02-23T06:51:21;6.10;1.00
10263;DHT22;5177;50.068;8.156;2024-02-23T06:53:47;6.10;1.00
10263;DHT22;5177;50.068;8.156;2024-02-23T06:56:12;6.10;1.00
10263;DHT22;5177;50.068;8.156;2024-02-23T06:58:38;6.10;1.00
10263;DHT22;5177;50.068;8.156;2024-02-23T07:01:04;6.10;1.00
10263;DHT22;5177;50.068;8.156;2024-02-23T07:03:32;6.10;1.00
10263;DHT22;5177;50.068;8.156;2024-02-23T07:05:58;6.10;1.00
10263;DHT22;5177;50.068;8.156;2024-02-23T07:08:23;6.10;1.00
10263;DHT22;5177;50.068;8.156;2024-02-23T07:10:49;6.10;1.00
10263;DHT22;5177;50.068;8.156;2024-02-23T07:13:14;6.10;1.00
10263;DHT22;5177;50.068;8.156;2024-02-23T07:15:40;6.10;1.00
10263;DHT22;5177;50.068;8.156;2024-02-23T07:18:05;6.20;1.00
10263;DHT22;5177;50.068;8.156;2024-02-23T07:20:33;6.20;1.00
10263;DHT22;5177;50.068;8.156;2024-02-23T07:22:58;6.20;1.00
10263;DHT22;5177;50.068;8.156;2024-02-23T07:25:24;6.30;1.00
10263;DHT22;5177;50.068;8.156;2024-02-23T07:27:49;6.30;1.00
10263;DHT22;5177;50.068;8.156;2024-02-23T07:30:15;6.30;1.00
10263;DHT22;5177;50.068;8.156;2024-02-23T07:32:42;6.30;1.00
10263;DHT22;5177;50.068;8.156;2024-02-23T07:35:07;6.30;1.00
10263;DHT22;5177;50.068;8.156;2024-02-23T07:37:33;6.40;83.80
10263;DHT22;5177;50.068;8.156;2024-02-23T07:39:59;6.40;1.00
10263;DHT22;5177;50.068;8.156;2024-02-23T07:42:24;6.40;1.00
10263;DHT22;5177;50.068;8.156;2024-02-23T07:44:50;6.40;3.30
10263;DHT22;5177;50.068;8.156;2024-02-23T07:47:15;6.40;1.00
10263;DHT22;5177;50.068;8.156;2024-02-23T07:49:41;6.50;1.00
10263;DHT22;5177;50.068;8.156;2024-02-23T07:52:06;6.50;1.00
10263;DHT22;5177;50.068;8.156;2024-02-23T07:54:33;6.50;1.00
10263;DHT22;5177;50.068;8.156;2024-02-23T07:56:58;6.50;1.00
10263;DHT22;5177;50.068;8.156;2024-02-23T07:59:24;6.50;1.00
10263;DHT22;5177;50.068;8.156;2024-02-23T08:01:49;6.60;1.00
10263;DHT22;5177;50.068;8.156;2024-02-23T08:04:15;6.60;1.00
10263;DHT22;5177;50.068;8.156;2024-02-23T08:06:41;6.60;1.00
10263;DHT22;5177;50.068;8.156;2024-02-23T08:09:08;6.60;1.00
10263;DHT22;5177;50.068;8.156;2024-02-23T08:11:34;6.60;1.00
10263;DHT22;5177;50.068;8.156;2024-02-23T08:13:59;6.70;1.00
10263;DHT22;5177;50.068;8.156;2024-02-23T08:16:25;6.70;1.00
10263;DHT22;5177;50.068;8.156;2024-02-23T08:18:50;6.80;1.00
10263;DHT22;5177;50.068;8.156;2024-02-23T08:21:16;6.70;1.00
10263;DHT22;5177;50.068;8.156;2024-02-23T08:23:41;6.70;1.00
10263;DHT22;5177;50.068;8.156;2024-02-23T08:26:06;6.80;1.00
10263;DHT22;5177;50.068;8.156;2024-02-23T08:28:32;6.70;1.00
10263;DHT22;5177;50.068;8.156;2024-02-23T08:30:57;6.80;1.00
10263;DHT22;5177;50.068;8.156;2024-02-23T08:33:23;6.80;1.00
10263;DHT22;5177;50.068;8.156;2024-02-23T08:35:48;6.90;1.00
10263;DHT22;5177;50.068;8.156;2024-02-23T08:38:14;6.90;1.00
10263;DHT22;5177;50.068;8.156;2024-02-23T08:40:40;6.90;1.00
10263;DHT22;5177;50.068;8.156;2024-02-23T08:43:05;6.90;1.00
10263;DHT22;5177;50.068;8.156;2024-02-23T08:45:30;6.90;1.00
10263;DHT22;5177;50.068;8.156;2024-02-23T08:47:56;6.80;1.00
10263;DHT22;5177;50.068;8.156;2024-02-23T08:50:21;6.90;1.00
10263;DHT22;5177;50.068;8.156;2024-02-23T08:52:47;6.90;1.00
10263;DHT22;5177;50.068;8.156;2024-02-23T08:55:12;6.90;1.00
10263;DHT22;5177;50.068;8.156;2024-02-23T08:57:38;6.90;1.00
10263;DHT22;5177;50.068;8.156;2024-02-23T09:00:04;6.90;1.00
10263;DHT22;5177;50.068;8.156;2024-02-23T09:02:30;6.90;1.00
10263;DHT22;5177;50.068;8.156;2024-02-23T09:04:56;7.00;1.00
10263;DHT22;5177;50.068;8.156;2024-02-23T09:07:21;7.00;1.00
10263;DHT22;5177;50.068;8.156;2024-02-23T09:09:47;7.00;1.00
10263;DHT22;5177;50.068;8.156;2024-02-23T09:12:14;7.00;1.00
10263;DHT22;5177;50.068;8.156;2024-02-23T09:14:42;7.00;1.00
10263;DHT22;5177;50.068;8.156;2024-02-23T09:17:09;7.10;1.00
10263;DHT22;5177;50.068;8.156;2024-02-23T09:19:35;7.20;99.90
10263;DHT22;5177;50.068;8.156;2024-02-23T09:22:02;7.20;99.90
10263;DHT22;5177;50.068;8.156;2024-02-23T09:24:27;7.50;99.90
10263;DHT22;5177;50.068;8.156;2024-02-23T09:26:53;7.90;99.90
10263;DHT22;5177;50.068;8.156;2024-02-23T09:29:18;7.70;99.90
10263;DHT22;5177;50.068;8.156;2024-02-23T09:31:44;7.90;99.90
10263;DHT22;5177;50.068;8.156;2024-02-23T09:34:10;7.90;99.90
10263;DHT22;5177;50.068;8.156;2024-02-23T09:36:35;7.80;99.90
10263;DHT22;5177;50.068;8.156;2024-02-23T09:39:01;7.70;99.90
10263;DHT22;5177;50.068;8.156;2024-02-23T09:41:27;7.70;98.10
10263;DHT22;5177;50.068;8.156;2024-02-23T09:43:53;7.60;99.90
10263;DHT22;5177;50.068;8.156;2024-02-23T09:46:20;7.70;99.90
10263;DHT22;5177;50.068;8.156;2024-02-23T09:48:45;7.80;99.90
10263;DHT22;5177;50.068;8.156;2024-02-23T09:51:14;8.00;99.90
10263;DHT22;5177;50.068;8.156;2024-02-23T09:53:40;8.10;37.80
10263;DHT22;5177;50.068;8.156;2024-02-23T09:56:06;8.20;26.00
10263;DHT22;5177;50.068;8.156;2024-02-23T09:58:33;8.10;1.00
10263;DHT22;5177;50.068;8.156;2024-02-23T10:00:59;8.20;1.00
10263;DHT22;5177;50.068;8.156;2024-02-23T10:03:27;8.20;1.00
10263;DHT22;5177;50.068;8.156;2024-02-23T10:05:54;8.30;41.80
10263;DHT22;5177;50.068;8.156;2024-02-23T10:08:19;8.30;1.00
10263;DHT22;5177;50.068;8.156;2024-02-23T10:10:45;8.30;1.00
10263;DHT22;5177;50.068;8.156;2024-02-23T10:13:11;8.20;1.00
10263;DHT22;5177;50.068;8.156;2024-02-23T10:15:37;8.10;1.00
10263;DHT22;5177;50.068;8.156;2024-02-23T10:18:02;8.10;1.00
10263;DHT22;5177;50.068;8.156;2024-02-23T10:20:28;8.20;5.60
10263;DHT22;5177;50.068;8.156;2024-02-23T10:22:54;8.30;1.00
10263;DHT22;5177;50.068;8.156;2024-02-23T10:25:19;8.40;13.80
10263;DHT22;5177;50.068;8.156;2024-02-23T10:27:45;8.40;1.00
10263;DHT22;5177;50.068;8.156;2024-02-23T10:30:10;8.50;1.00
10263;DHT22;5177;50.068;8.156;2024-02-23T10:32:38;8.50;1.00
10263;DHT22;5177;50.068;8.156;2024-02-23T10:35:03;8.40;1.00
10263;DHT22;5177;50.068;8.156;2024-02-23T10:37:33;8.50;1.00
10263;DHT22;5177;50.068;8.156;2024-02-23T10:39:59;8.60;1.00
10263;DHT22;5177;50.068;8.156;2024-02-23T10:42:25;8.70;1.00
10263;DHT22;5177;50.068;8.156;2024-02-23T10:44:52;8.70;1.00
10263;DHT22;5177;50.068;8.156;2024-02-23T10:47:20;8.70;1.00
10263;DHT22;5177;50.068;8.156;2024-02-23T10:49:46;8.80;1.00
10263;DHT22;5177;50.068;8.156;2024-02-23T10:52:12;8.70;1.00
10263;DHT22;5177;50.068;8.156;2024-02-23T10:54:40;8.60;1.00
10263;DHT22;5177;50.068;8.156;2024-02-23T10:57:05;8.60;1.00
10263;DHT22;5177;50.068;8.156;2024-02-23T10:59:31;8.50;1.00
10263;DHT22;5177;50.068;8.156;2024-02-23T11:01:57;8.40;1.00
10263;DHT22;5177;50.068;8.156;2024-02-23T11:04:25;8.40;1.00
10263;DHT22;5177;50.068;8.156;2024-02-23T11:06:51;8.40;36.60
10263;DHT22;5177;50.068;8.156;2024-02-23T11:09:20;8.20;99.90
10263;DHT22;5177;50.068;8.156;2024-02-23T11:11:53;8.20;1.00
10263;DHT22;5177;50.068;8.156;2024-02-23T11:14:19;8.00;1.00
10263;DHT22;5177;50.068;8.156;2024-02-23T11:16:54;8.00;1.00
10263;DHT22;5177;50.068;8.156;2024-02-23T11:19:19;8.00;99.90
10263;DHT22;5177;50.068;8.156;2024-02-23T11:21:51;7.90;99.90
10263;DHT22;5177;50.068;8.156;2024-02-23T11:24:17;7.90;99.90
10263;DHT22;5177;50.068;8.156;2024-02-23T11:26:43;7.90;99.90
10263;DHT22;5177;50.068;8.156;2024-02-23T11:29:11;8.00;99.90
10263;DHT22;5177;50.068;8.156;2024-02-23T11:31:37;8.10;99.90
10263;DHT22;5177;50.068;8.156;2024-02-23T11:34:09;8.20;99.90
10263;DHT22;5177;50.068;8.156;2024-02-23T11:36:34;8.50;99.90
10263;DHT22;5177;50.068;8.156;2024-02-23T11:39:01;8.60;64.90
10263;DHT22;5177;50.068;8.156;2024-02-23T11:41:28;8.60;34.80
10263;DHT22;5177;50.068;8.156;2024-02-23T11:44:03;8.70;99.90
10263;DHT22;5177;50.068;8.156;2024-02-23T11:46:28;8.80;1.00
10263;DHT22;5177;50.068;8.156;2024-02-23T11:48:54;8.70;1.00
10263;DHT22;5177;50.068;8.156;2024-02-23T11:51:20;8.70;1.00
10263;DHT22;5177;50.068;8.156;2024-02-23T11:53:49;8.70;1.00
10263;DHT22;5177;50.068;8.156;2024-02-23T11:56:15;8.70;1.00
10263;DHT22;5177;50.068;8.156;2024-02-23T11:58:41;8.70;1.00
10263;DHT22;5177;50.068;8.156;2024-02-23T12:01:07;8.80;1.00
10263;DHT22;5177;50.068;8.156;2024-02-23T12:03:33;8.80;1.00
10263;DHT22;5177;50.068;8.156;2024-02-23T12:06:01;8.90;1.00
10263;DHT22;5177;50.068;8.156;2024-02-23T12:08:28;9.00;1.00
10263;DHT22;5177;50.068;8.156;2024-02-23T12:10:54;9.00;1.00
10263;DHT22;5177;50.068;8.156;2024-02-23T12:13:20;9.10;1.00
10263;DHT22;5177;50.068;8.156;2024-02-23T12:15:47;9.30;1.00
10263;DHT22;5177;50.068;8.156;2024-02-23T12:18:12;9.50;1.00
10263;DHT22;5177;50.068;8.156;2024-02-23T12:20:38;9.90;1.00
10263;DHT22;5177;50.068;8.156;2024-02-23T12:23:04;10.20;99.90
10263;DHT22;5177;50.068;8.156;2024-02-23T12:25:29;10.50;99.90
10263;DHT22;5177;50.068;8.156;2024-02-23T12:27:55;10.50;99.90
10263;DHT22;5177;50.068;8.156;2024-02-23T12:30:21;10.50;99.90
10263;DHT22;5177;50.068;8.156;2024-02-23T12:32:47;10.20;99.90
10263;DHT22;5177;50.068;8.156;2024-02-23T12:35:12;10.00;99.90
10263;DHT22;5177;50.068;8.156;2024-02-23T12:37:38;9.80;99.90
10263;DHT22;5177;50.068;8.156;2024-02-23T12:40:04;9.70;99.90
10263;DHT22;5177;50.068;8.156;2024-02-23T12:42:31;9.60;99.90
10263;DHT22;5177;50.068;8.156;2024-02-23T12:44:56;9.60;99.90
10263;DHT22;5177;50.068;8.156;2024-02-23T12:47:22;9.60;99.90
10263;DHT22;5177;50.068;8.156;2024-02-23T12:49:47;9.50;99.90
10263;DHT22;5177;50.068;8.156;2024-02-23T12:52:13;9.50;99.90
10263;DHT22;5177;50.068;8.156;2024-02-23T12:54:38;9.70;99.90
10263;DHT22;5177;50.068;8.156;2024-02-23T12:57:04;10.00;99.90
10263;DHT22;5177;50.068;8.156;2024-02-23T12:59:30;10.50;99.90
10263;DHT22;5177;50.068;8.156;2024-02-23T13:01:55;10.90;99.90
10263;DHT22;5177;50.068;8.156;2024-02-23T13:04:21;10.70;99.90
10263;DHT22;5177;50.068;8.156;2024-02-23T13:06:46;10.50;99.90
10263;DHT22;5177;50.068;8.156;2024-02-23T13:09:12;10.70;99.90
10263;DHT22;5177;50.068;8.156;2024-02-23T13:11:39;10.70;99.90
10263;DHT22;5177;50.068;8.156;2024-02-23T13:14:05;10.60;99.90
10263;DHT22;5177;50.068;8.156;2024-02-23T13:16:31;10.60;99.90
10263;DHT22;5177;50.068;8.156;2024-02-23T13:18:56;10.50;99.90
10263;DHT22;5177;50.068;8.156;2024-02-23T13:21:22;10.40;99.90
10263;DHT22;5177;50.068;8.156;2024-02-23T13:23:49;10.40;99.90
10263;DHT22;5177;50.068;8.156;2024-02-23T13:26:14;10.30;99.90
10263;DHT22;5177;50.068;8.156;2024-02-23T13:28:43;10.30;99.90
10263;DHT22;5177;50.068;8.156;2024-02-23T13:31:09;10.40;99.90
10263;DHT22;5177;50.068;8.156;2024-02-23T13:33:35;10.70;99.90
10263;DHT22;5177;50.068;8.156;2024-02-23T13:36:00;11.10;99.90
10263;DHT22;5177;50.068;8.156;2024-02-23T13:38:26;11.10;99.90
10263;DHT22;5177;50.068;8.156;2024-02-23T13:40:51;11.30;99.90
10263;DHT22;5177;50.068;8.156;2024-02-23T13:43:17;11.60;99.90
10263;DHT22;5177;50.068;8.156;2024-02-23T13:45:49;11.20;99.90
10263;DHT22;5177;50.068;8.156;2024-02-23T13:48:16;11.10;99.90
10263;DHT22;5177;50.068;8.156;2024-02-23T13:50:44;11.10;99.90
10263;DHT22;5177;50.068;8.156;2024-02-23T13:53:10;11.20;99.90
10263;DHT22;5177;50.068;8.156;2024-02-23T13:55:36;11.10;99.90
10263;DHT22;5177;50.068;8.156;2024-02-23T13:58:01;10.90;99.90
10263;DHT22;5177;50.068;8.156;2024-02-23T14:00:27;10.70;99.90
10263;DHT22;5177;50.068;8.156;2024-02-23T14:02:53;10.80;99.90
10263;DHT22;5177;50.068;8.156;2024-02-23T14:05:18;10.80;99.90
10263;DHT22;5177;50.068;8.156;2024-02-23T14:07:47;11.20;99.90
10263;DHT22;5177;50.068;8.156;2024-02-23T14:10:13;11.60;99.90
10263;DHT22;5177;50.068;8.156;2024-02-23T14:12:39;11.80;99.90
10263;DHT22;5177;50.068;8.156;2024-02-23T14:15:05;11.40;99.90
10263;DHT22;5177;50.068;8.156;2024-02-23T14:17:30;11.30;99.90
10263;DHT22;5177;50.068;8.156;2024-02-23T14:19:56;11.30;99.90
10263;DHT22;5177;50.068;8.156;2024-02-23T14:22:21;11.30;99.90
10263;DHT22;5177;50.068;8.156;2024-02-23T14:24:47;11.40;99.90
10263;DHT22;5177;50.068;8.156;2024-02-23T14:27:12;11.40;99.90
10263;DHT22;5177;50.068;8.156;2024-02-23T14:29:38;11.50;99.90
10263;DHT22;5177;50.068;8.156;2024-02-23T14:32:03;11.80;99.90
10263;DHT22;5177;50.068;8.156;2024-02-23T14:34:30;12.20;99.90
10263;DHT22;5177;50.068;8.156;2024-02-23T14:36:55;12.10;99.90
10263;DHT22;5177;50.068;8.156;2024-02-23T14:39:22;11.50;99.90
10263;DHT22;5177;50.068;8.156;2024-02-23T14:41:47;11.10;99.90
10263;DHT22;5177;50.068;8.156;2024-02-23T14:44:13;11.00;99.90
10263;DHT22;5177;50.068;8.156;2024-02-23T14:46:39;10.90;99.90
10263;DHT22;5177;50.068;8.156;2024-02-23T14:49:06;10.90;99.90
10263;DHT22;5177;50.068;8.156;2024-02-23T14:51:31;10.80;99.90
10263;DHT22;5177;50.068;8.156;2024-02-23T14:53:57;10.70;99.90
10263;DHT22;5177;50.068;8.156;2024-02-23T14:56:22;10.70;99.90
10263;DHT22;5177;50.068;8.156;2024-02-23T14:58:48;10.60;99.90
10263;DHT22;5177;50.068;8.156;2024-02-23T15:01:14;10.60;99.90
10263;DHT22;5177;50.068;8.156;2024-02-23T15:03:39;10.80;99.90
10263;DHT22;5177;50.068;8.156;2024-02-23T15:06:05;11.00;99.90
10263;DHT22;5177;50.068;8.156;2024-02-23T15:08:30;11.20;99.90
10263;DHT22;5177;50.068;8.156;2024-02-23T15:10:56;11.40;99.90
10263;DHT22;5177;50.068;8.156;2024-02-23T15:13:22;11.40;99.90
10263;DHT22;5177;50.068;8.156;2024-02-23T15:15:47;11.30;99.90
10263;DHT22;5177;50.068;8.156;2024-02-23T15:18:13;11.10;99.90
10263;DHT22;5177;50.068;8.156;2024-02-23T15:20:38;11.00;99.90
10263;DHT22;5177;50.068;8.156;2024-02-23T15:23:04;10.90;99.90
10263;DHT22;5177;50.068;8.156;2024-02-23T15:25:30;10.70;99.90
10263;DHT22;5177;50.068;8.156;2024-02-23T15:27:55;10.60;99.90
10263;DHT22;5177;50.068;8.156;2024-02-23T15:30:24;10.60;99.90
10263;DHT22;5177;50.068;8.156;2024-02-23T15:32:50;10.50;99.90
10263;DHT22;5177;50.068;8.156;2024-02-23T15:35:15;10.30;99.90
10263;DHT22;5177;50.068;8.156;2024-02-23T15:37:41;10.30;99.90
10263;DHT22;5177;50.068;8.156;2024-02-23T15:40:06;10.30;99.90
10263;DHT22;5177;50.068;8.156;2024-02-23T15:42:32;10.20;99.90
10263;DHT22;5177;50.068;8.156;2024-02-23T15:45:03;10.20;99.90
10263;DHT22;5177;50.068;8.156;2024-02-23T15:47:29;10.10;99.90
10263;DHT22;5177;50.068;8.156;2024-02-23T15:49:55;10.10;99.90
10263;DHT22;5177;50.068;8.156;2024-02-23T15:52:20;10.10;99.90
10263;DHT22;5177;50.068;8.156;2024-02-23T15:54:46;10.10;99.90
10263;DHT22;5177;50.068;8.156;2024-02-23T15:57:12;10.10;99.90